Mosby, Missouri
Current Conditions -  °F | °C
As of 6:35 AM on Thursday 29 Jan 2015 (Local Time) from KGPH Reporting Station
NA  
Wind Chill: 28°   Ceiling: NA
Heat Index: 37°   Visibility: 10mi
Dew Point: 32°   Wind: 16mph
Humidity: 81%   Direction: 320°NW
Pressure: 30.15"   Gusts: 28mph
Location:  39.32°N, 94.29°W
Report Text: KGPH 291235Z AUTO 32014G24KT 10SM 03/00 A3015 RMK AO2
Loading
Personal Weather Stations






























Interactive Weather Map New forecast layout! Learn more

10-Day Weather Forecast

Advertisements
Track Severe Weather on mobile